Terminal Aerodrome Forecast
Issued by NWS Louisville, KY

Home | Current Version | Previous Version | Text Only | Print | Product List | Glossary On
Versions: 1 2 3 4 5 6 7 8 9 10 11 12 13 14 15 16 17 18
000
FTUS43 KLMK 281100
TAFLEX
TAF
KLEX 281129Z 2812/2912 32008KT 3SM -RA BR OVC004
      TEMPO 2813/2816 6SM -DZ SCT004 BKN006
     FM281600 34007KT 6SM -DZ BKN008
     FM282200 35006KT P6SM OVC012
     FM290600 02005KT P6SM BKN022=

USA.gov is the U.S. government's official web portal to all federal, state and local government web resources and services.